createdAt,value
2023-07-21T00:00:02.409Z,13.57
2023-07-21T00:02:29.209Z,13.55
2023-07-21T00:04:56.265Z,13.51
2023-07-21T00:07:26.048Z,13.46
2023-07-21T00:09:53.452Z,13.44
2023-07-21T00:12:20.188Z,13.43
2023-07-21T00:14:46.774Z,13.40
2023-07-21T00:17:13.395Z,13.35
2023-07-21T00:19:40.048Z,13.32
2023-07-21T00:22:07.100Z,13.30
2023-07-21T00:24:34.138Z,13.27
2023-07-21T00:27:03.063Z,13.23
2023-07-21T00:29:30.700Z,13.20
2023-07-21T00:31:57.387Z,13.16
2023-07-21T00:34:26.041Z,13.12
2023-07-21T00:36:57.144Z,13.08
2023-07-21T00:39:24.055Z,13.04
2023-07-21T00:41:50.810Z,13.01
2023-07-21T00:44:17.655Z,12.98
2023-07-21T00:46:44.683Z,12.97
2023-07-21T00:49:11.636Z,12.92
2023-07-21T00:51:38.728Z,12.92
2023-07-21T00:54:05.537Z,12.88
2023-07-21T00:56:33.291Z,12.85
2023-07-21T00:59:01.516Z,12.81
2023-07-21T01:01:28.481Z,12.77
2023-07-21T01:03:56.045Z,12.73
2023-07-21T01:06:27.594Z,12.70
2023-07-21T01:08:58.113Z,12.67
2023-07-21T01:11:26.552Z,12.65
2023-07-21T01:13:55.462Z,12.61
2023-07-21T01:16:24.964Z,12.59
2023-07-21T01:18:54.577Z,12.56
2023-07-21T01:21:35.587Z,12.51
2023-07-21T01:24:09.482Z,12.48
2023-07-21T01:26:38.413Z,12.46
2023-07-21T01:29:07.013Z,12.45
2023-07-21T01:31:36.331Z,12.42
2023-07-21T01:34:05.017Z,12.40
2023-07-21T01:36:32.164Z,12.38
2023-07-21T01:39:00.239Z,12.37
2023-07-21T01:41:27.753Z,12.34
2023-07-21T01:43:54.730Z,12.32
2023-07-21T01:46:21.597Z,12.30
2023-07-21T01:48:49.341Z,12.29
2023-07-21T01:51:19.850Z,12.27
2023-07-21T01:53:53.079Z,12.25
2023-07-21T01:56:29.891Z,12.22
2023-07-21T01:59:00.806Z,12.20
2023-07-21T02:01:29.674Z,12.18
2023-07-21T02:03:57.296Z,12.15
2023-07-21T02:06:24.245Z,12.13
2023-07-21T02:08:51.259Z,12.12
2023-07-21T02:11:21.453Z,12.12
2023-07-21T02:13:48.439Z,12.10
2023-07-21T02:16:15.259Z,12.11
2023-07-21T02:18:43.599Z,12.08
2023-07-21T02:21:10.367Z,12.08
2023-07-21T02:23:37.161Z,12.06
2023-07-21T02:26:04.036Z,12.05
2023-07-21T02:28:30.741Z,12.05
2023-07-21T02:31:03.393Z,12.05
2023-07-21T02:33:32.457Z,12.03
2023-07-21T02:36:01.042Z,12.02
2023-07-21T02:38:28.232Z,12.00
2023-07-21T02:40:55.547Z,11.99
2023-07-21T02:43:23.889Z,11.99
2023-07-21T02:45:52.716Z,11.96
2023-07-21T02:48:19.734Z,11.94
2023-07-21T02:50:50.530Z,11.93
2023-07-21T02:53:18.002Z,11.89
2023-07-21T02:55:45.410Z,11.87
2023-07-21T02:58:14.145Z,11.86
2023-07-21T03:00:43.151Z,11.82
2023-07-21T03:03:19.334Z,11.81
2023-07-21T03:05:46.562Z,11.78
2023-07-21T03:08:15.751Z,11.77
2023-07-21T03:10:42.755Z,11.75
2023-07-21T03:13:09.349Z,11.75
2023-07-21T03:15:35.972Z,11.72
2023-07-21T03:18:02.793Z,11.71
2023-07-21T03:20:29.700Z,11.70
2023-07-21T03:22:56.317Z,11.70
2023-07-21T03:25:22.878Z,11.66
2023-07-21T03:27:49.643Z,11.66
2023-07-21T03:30:16.299Z,11.64
2023-07-21T03:32:46.919Z,11.62
2023-07-21T03:35:13.920Z,11.59
2023-07-21T03:37:40.735Z,11.56
2023-07-21T03:40:08.877Z,11.53
2023-07-21T03:42:36.233Z,11.51
2023-07-21T03:45:08.158Z,11.49
2023-07-21T03:47:36.144Z,11.46
2023-07-21T03:50:03.446Z,11.45
2023-07-21T03:52:30.447Z,11.44
2023-07-21T03:54:57.349Z,11.43
2023-07-21T03:57:24.202Z,11.42
2023-07-21T03:59:51.063Z,11.41
2023-07-21T04:02:18.850Z,11.41
2023-07-21T04:04:46.686Z,11.40
2023-07-21T04:07:14.142Z,11.40
2023-07-21T04:09:41.177Z,11.39
2023-07-21T04:12:08.426Z,11.40
2023-07-21T04:14:35.579Z,11.39
2023-07-21T04:17:02.309Z,11.41
2023-07-21T04:19:29.080Z,11.41
2023-07-21T04:21:55.954Z,11.42
2023-07-21T04:24:22.728Z,11.43
2023-07-21T04:26:49.443Z,11.43
2023-07-21T04:29:29.876Z,11.45
2023-07-21T04:32:02.580Z,11.49
2023-07-21T04:34:29.268Z,11.51
2023-07-21T04:36:55.842Z,11.53
2023-07-21T04:39:22.589Z,11.56
2023-07-21T04:41:49.208Z,11.59
2023-07-21T04:44:17.018Z,11.61
2023-07-21T04:46:43.710Z,11.63
2023-07-21T04:49:10.823Z,11.64
2023-07-21T04:51:37.453Z,11.65
2023-07-21T04:54:04.732Z,11.68
2023-07-21T04:56:31.639Z,11.70
2023-07-21T04:58:58.375Z,11.74
2023-07-21T05:01:25.402Z,11.78
2023-07-21T05:03:52.196Z,11.80
2023-07-21T05:06:18.922Z,11.87
2023-07-21T05:08:45.819Z,11.92
2023-07-21T05:11:12.488Z,12.01
2023-07-21T05:13:39.246Z,12.08
2023-07-21T05:16:05.969Z,12.18
2023-07-21T05:18:32.723Z,12.27
2023-07-21T05:20:59.793Z,12.36
2023-07-21T05:23:26.406Z,12.44
2023-07-21T05:26:01.781Z,12.55
2023-07-21T05:28:30.368Z,12.68
2023-07-21T05:30:58.369Z,12.79
2023-07-21T05:33:25.237Z,12.92
2023-07-21T05:35:51.790Z,13.06
2023-07-21T05:38:18.375Z,13.18
2023-07-21T05:40:45.054Z,13.26
2023-07-21T05:43:11.660Z,13.33
2023-07-21T05:45:39.751Z,13.42
2023-07-21T05:48:06.957Z,13.50
2023-07-21T05:50:38.515Z,13.58
2023-07-21T05:53:05.738Z,13.66
2023-07-21T05:55:32.385Z,13.74
2023-07-21T05:57:59.112Z,13.87
2023-07-21T06:00:26.676Z,14.00
2023-07-21T06:02:53.576Z,14.11
2023-07-21T06:05:20.458Z,14.24
2023-07-21T06:07:47.458Z,14.33
2023-07-21T06:10:14.444Z,14.40
2023-07-21T06:12:41.362Z,14.46
2023-07-21T06:15:09.347Z,14.48
2023-07-21T06:17:36.064Z,14.51
2023-07-21T06:20:02.802Z,14.58
2023-07-21T06:22:29.865Z,14.61
2023-07-21T06:24:56.635Z,14.65
2023-07-21T06:27:23.388Z,14.70
2023-07-21T06:29:50.083Z,14.76
2023-07-21T06:32:16.853Z,14.84
2023-07-21T06:34:43.615Z,14.90
2023-07-21T06:37:10.196Z,14.95
2023-07-21T06:39:36.863Z,14.97
2023-07-21T06:42:05.485Z,14.99
2023-07-21T06:44:32.970Z,15.01
2023-07-21T06:46:59.578Z,15.05
2023-07-21T06:49:26.385Z,15.11
2023-07-21T06:51:53.664Z,15.19
2023-07-21T06:54:20.356Z,15.27
2023-07-21T06:56:49.699Z,15.37
2023-07-21T06:59:16.733Z,15.42
2023-07-21T07:01:43.846Z,15.50
2023-07-21T07:04:10.719Z,15.55
2023-07-21T07:06:37.592Z,15.73
2023-07-21T07:09:04.316Z,15.86
2023-07-21T07:11:31.459Z,15.98
2023-07-21T07:13:58.105Z,16.09
2023-07-21T07:16:24.791Z,16.18
2023-07-21T07:18:51.397Z,16.24
2023-07-21T07:21:18.482Z,16.29
2023-07-21T07:23:45.122Z,16.30
2023-07-21T07:26:11.886Z,16.27
2023-07-21T07:28:40.029Z,16.29
2023-07-21T07:31:07.828Z,16.28
2023-07-21T07:33:34.730Z,16.26
2023-07-21T07:36:01.760Z,16.24
2023-07-21T07:38:29.938Z,16.25
2023-07-21T07:41:06.710Z,16.24
2023-07-21T07:43:34.274Z,16.26
2023-07-21T07:46:02.169Z,16.25
2023-07-21T07:48:29.404Z,16.26
2023-07-21T07:50:56.219Z,16.26
2023-07-21T07:53:23.305Z,16.28
2023-07-21T07:55:50.374Z,16.31
2023-07-21T07:58:17.048Z,16.34
2023-07-21T08:00:44.408Z,16.38
2023-07-21T08:03:11.706Z,16.47
2023-07-21T08:05:40.479Z,16.56
2023-07-21T08:08:09.397Z,16.60
2023-07-21T08:10:39.980Z,16.72
2023-07-21T08:13:07.261Z,16.83
2023-07-21T08:15:34.280Z,16.93
2023-07-21T08:18:01.002Z,17.06
2023-07-21T08:20:27.697Z,17.18
2023-07-21T08:22:54.364Z,17.25
2023-07-21T08:25:21.707Z,17.38
2023-07-21T08:27:49.534Z,17.50
2023-07-21T08:30:17.899Z,17.64
2023-07-21T08:32:44.588Z,17.84
2023-07-21T08:35:11.768Z,18.09
2023-07-21T08:37:40.176Z,18.38
2023-07-21T08:40:08.479Z,18.71
2023-07-21T08:42:36.479Z,18.98
2023-07-21T08:45:06.587Z,19.27
2023-07-21T08:47:34.144Z,19.71
2023-07-21T08:50:00.982Z,20.11
2023-07-21T08:52:27.762Z,20.47
2023-07-21T08:54:55.411Z,20.60
2023-07-21T08:57:22.453Z,20.66
2023-07-21T08:59:50.927Z,20.70
2023-07-21T09:02:17.541Z,20.80
2023-07-21T09:04:45.536Z,20.93
2023-07-21T09:07:12.568Z,21.20
2023-07-21T09:09:39.282Z,21.30
2023-07-21T09:12:10.762Z,21.44
2023-07-21T09:17:14.297Z,22.05
2023-07-21T09:19:43.780Z,22.24
2023-07-21T09:22:13.013Z,22.38
2023-07-21T09:24:51.008Z,22.26
2023-07-21T09:27:19.820Z,22.14
2023-07-21T09:29:47.139Z,22.12
2023-07-21T09:32:19.359Z,22.05
2023-07-21T09:37:39.374Z,21.58
2023-07-21T09:40:10.695Z,21.38
2023-07-21T09:42:39.188Z,21.22
2023-07-21T09:45:06.801Z,21.08
2023-07-21T09:47:33.688Z,20.92
2023-07-21T09:50:00.499Z,20.77
2023-07-21T09:52:28.674Z,20.65
2023-07-21T09:57:36.358Z,20.50
2023-07-21T10:00:11.032Z,20.45
2023-07-21T10:02:38.012Z,20.41
2023-07-21T10:05:06.112Z,20.29
2023-07-21T10:07:34.279Z,20.14
2023-07-21T10:10:02.796Z,20.04
2023-07-21T10:12:42.743Z,19.90
2023-07-21T10:15:23.231Z,19.83
2023-07-21T10:17:59.265Z,19.75
2023-07-21T10:23:24.558Z,19.89
2023-07-21T10:28:46.193Z,20.47
2023-07-21T10:34:25.900Z,21.16
2023-07-21T10:39:32.280Z,21.71
2023-07-21T10:42:02.280Z,21.69
2023-07-21T10:44:49.022Z,21.42
2023-07-21T10:47:18.506Z,21.15
2023-07-21T10:49:45.847Z,20.60
2023-07-21T10:52:12.714Z,20.37
2023-07-21T10:54:40.139Z,20.09
2023-07-21T10:57:08.232Z,19.88
2023-07-21T10:59:37.955Z,19.69
2023-07-21T11:02:08.393Z,19.61
2023-07-21T11:04:37.238Z,19.61
2023-07-21T11:07:04.440Z,19.70
2023-07-21T11:09:38.963Z,19.94
2023-07-21T11:12:06.144Z,20.28
2023-07-21T11:14:32.952Z,20.62
2023-07-21T11:17:03.525Z,20.94
2023-07-21T11:19:32.829Z,21.26
2023-07-21T11:22:00.533Z,21.43
2023-07-21T11:24:31.025Z,21.48
2023-07-21T11:27:05.681Z,21.43
2023-07-21T11:29:36.125Z,21.40
2023-07-21T11:32:16.235Z,21.30
2023-07-21T11:34:43.079Z,21.30
2023-07-21T11:37:10.432Z,21.39
2023-07-21T11:39:37.938Z,21.42
2023-07-21T11:42:04.952Z,21.50
2023-07-21T11:44:33.477Z,21.55
2023-07-21T11:47:08.522Z,21.66
2023-07-21T11:52:27.300Z,21.85
2023-07-21T11:54:55.219Z,21.84
2023-07-21T11:57:22.090Z,21.76
2023-07-21T11:59:48.813Z,21.73
2023-07-21T12:02:18.265Z,21.69
2023-07-21T12:04:45.194Z,21.49
2023-07-21T12:07:11.824Z,21.54
2023-07-21T12:09:39.583Z,21.41
2023-07-21T12:12:08.899Z,21.28
2023-07-21T12:14:35.778Z,21.12
2023-07-21T12:17:02.622Z,20.97
2023-07-21T12:19:29.243Z,20.85
2023-07-21T12:21:56.710Z,20.73
2023-07-21T12:24:23.783Z,20.65
2023-07-21T12:26:50.482Z,20.60
2023-07-21T12:29:33.217Z,20.57
2023-07-21T12:32:05.314Z,20.50
2023-07-21T12:34:32.022Z,20.46
2023-07-21T12:36:59.450Z,20.46
2023-07-21T12:39:26.120Z,20.52
2023-07-21T12:41:53.910Z,20.57
2023-07-21T12:44:23.123Z,20.64
2023-07-21T12:46:49.948Z,20.71
2023-07-21T12:49:16.628Z,20.77
2023-07-21T12:51:45.098Z,20.83
2023-07-21T12:54:11.942Z,20.91
2023-07-21T12:56:39.135Z,20.97
2023-07-21T12:59:06.720Z,21.00
2023-07-21T13:01:33.657Z,21.05
2023-07-21T13:04:00.682Z,21.14
2023-07-21T13:06:28.746Z,21.24
2023-07-21T13:08:56.327Z,21.34
2023-07-21T13:11:23.038Z,21.42
2023-07-21T13:13:52.856Z,21.49
2023-07-21T13:16:20.082Z,21.52
2023-07-21T13:18:48.049Z,21.51
2023-07-21T13:21:15.292Z,21.43
2023-07-21T13:23:42.491Z,21.27
2023-07-21T13:26:09.304Z,21.11
2023-07-21T13:28:35.906Z,20.93
2023-07-21T13:31:02.684Z,20.78
2023-07-21T13:33:29.427Z,20.64
2023-07-21T13:35:56.036Z,20.53
2023-07-21T13:38:23.653Z,20.46
2023-07-21T13:40:50.624Z,20.39
2023-07-21T13:43:17.207Z,20.32
2023-07-21T13:45:43.848Z,20.29
2023-07-21T13:48:13.479Z,20.31
2023-07-21T13:50:41.370Z,20.36
2023-07-21T13:53:07.991Z,20.44
2023-07-21T13:55:34.863Z,20.52
2023-07-21T13:58:01.673Z,20.67
2023-07-21T14:00:30.893Z,20.73
2023-07-21T14:02:57.938Z,20.81
2023-07-21T14:05:25.692Z,20.91
2023-07-21T14:07:52.888Z,21.09
2023-07-21T14:10:19.683Z,21.22
2023-07-21T14:12:47.328Z,21.41
2023-07-21T14:15:14.296Z,21.61
2023-07-21T14:17:41.432Z,21.72
2023-07-21T14:20:11.234Z,21.81
2023-07-21T14:22:38.925Z,21.86
2023-07-21T14:25:06.323Z,21.90
2023-07-21T14:27:33.029Z,21.81
2023-07-21T14:29:59.724Z,21.79
2023-07-21T14:32:26.498Z,21.81
2023-07-21T14:34:53.164Z,21.85
2023-07-21T14:37:20.696Z,21.88
2023-07-21T14:39:48.055Z,21.93
2023-07-21T14:42:16.164Z,22.03
2023-07-21T14:44:42.933Z,22.13
2023-07-21T14:47:10.259Z,22.29
2023-07-21T14:49:37.009Z,22.41
2023-07-21T14:52:04.524Z,22.41
2023-07-21T14:54:31.494Z,22.38
2023-07-21T14:56:58.293Z,22.41
2023-07-21T14:59:24.945Z,22.50
2023-07-21T15:01:51.664Z,22.55
2023-07-21T15:04:19.544Z,22.65
2023-07-21T15:06:46.432Z,22.68
2023-07-21T15:09:14.137Z,22.78
2023-07-21T15:11:40.765Z,22.81
2023-07-21T15:14:07.694Z,22.93
2023-07-21T15:16:34.389Z,23.03
2023-07-21T15:19:01.107Z,23.02
2023-07-21T15:21:27.732Z,22.98
2023-07-21T15:23:54.329Z,22.97
2023-07-21T15:26:21.056Z,22.97
2023-07-21T15:28:48.144Z,22.91
2023-07-21T15:31:14.883Z,22.84
2023-07-21T15:33:43.096Z,22.81
2023-07-21T15:36:10.032Z,22.73
2023-07-21T15:38:36.786Z,22.65
2023-07-21T15:41:03.359Z,22.51
2023-07-21T15:43:29.968Z,22.27
2023-07-21T15:45:56.637Z,21.97
2023-07-21T15:48:23.438Z,21.61
2023-07-21T15:50:50.297Z,21.31
2023-07-21T15:53:16.946Z,21.07
2023-07-21T15:55:44.183Z,20.87
2023-07-21T15:58:11.921Z,20.72
2023-07-21T16:00:38.593Z,20.59
2023-07-21T16:03:05.968Z,20.44
2023-07-21T16:05:33.294Z,20.36
2023-07-21T16:08:00.136Z,20.28
2023-07-21T16:10:26.787Z,20.21
2023-07-21T16:12:53.455Z,20.17
2023-07-21T16:15:20.371Z,20.12
2023-07-21T16:17:48.132Z,20.07
2023-07-21T16:20:15.243Z,20.00
2023-07-21T16:22:42.119Z,19.94
2023-07-21T16:25:09.878Z,19.92
2023-07-21T16:27:36.691Z,19.86
2023-07-21T16:30:03.562Z,19.81
2023-07-21T16:32:30.288Z,19.76
2023-07-21T16:34:57.116Z,19.70
2023-07-21T16:37:23.798Z,19.64
2023-07-21T16:39:54.359Z,19.59
2023-07-21T16:42:21.177Z,19.56
2023-07-21T16:44:47.925Z,19.51
2023-07-21T16:47:14.688Z,19.49
2023-07-21T16:49:41.982Z,19.47
2023-07-21T16:52:08.934Z,19.46
2023-07-21T16:54:35.575Z,19.45
2023-07-21T16:57:02.223Z,19.47
2023-07-21T16:59:32.176Z,19.51
2023-07-21T17:02:01.350Z,19.59
2023-07-21T17:04:33.128Z,19.68
2023-07-21T17:07:00.467Z,19.77
2023-07-21T17:09:27.053Z,19.87
2023-07-21T17:11:53.805Z,19.91
2023-07-21T17:14:20.457Z,19.95
2023-07-21T17:16:47.743Z,19.98
2023-07-21T17:19:14.856Z,19.99
2023-07-21T17:21:44.022Z,20.02
2023-07-21T17:24:11.082Z,19.88
2023-07-21T17:26:37.693Z,20.04
2023-07-21T17:29:04.483Z,20.08
2023-07-21T17:31:31.198Z,20.11
2023-07-21T17:33:57.824Z,20.16
2023-07-21T17:36:24.735Z,20.19
2023-07-21T17:38:51.376Z,20.19
2023-07-21T17:41:18.213Z,20.19
2023-07-21T17:43:44.848Z,20.20
2023-07-21T17:46:11.734Z,20.21
2023-07-21T17:48:38.437Z,20.18
2023-07-21T17:51:05.165Z,20.15
2023-07-21T17:53:31.799Z,20.13
2023-07-21T17:55:58.446Z,20.08
2023-07-21T17:58:25.134Z,20.03
2023-07-21T18:00:51.911Z,19.99
2023-07-21T18:03:20.032Z,19.98
2023-07-21T18:05:47.840Z,19.96
2023-07-21T18:08:14.777Z,19.96
2023-07-21T18:10:41.588Z,19.98
2023-07-21T18:13:08.231Z,19.99
2023-07-21T18:15:36.611Z,19.98
2023-07-21T18:18:04.569Z,19.96
2023-07-21T18:20:35.458Z,19.94
2023-07-21T18:23:03.543Z,19.91
2023-07-21T18:25:30.765Z,19.88
2023-07-21T18:27:57.663Z,19.86
2023-07-21T18:30:24.442Z,19.86
2023-07-21T18:32:52.124Z,19.83
2023-07-21T18:35:20.754Z,19.75
2023-07-21T18:37:49.663Z,19.70
2023-07-21T18:40:16.883Z,19.67
2023-07-21T18:42:50.334Z,19.65
2023-07-21T18:45:19.623Z,19.59
2023-07-21T18:47:46.620Z,19.57
2023-07-21T18:50:13.622Z,19.52
2023-07-21T18:52:40.213Z,19.47
2023-07-21T18:55:07.516Z,19.42
2023-07-21T18:57:34.084Z,19.38
2023-07-21T19:00:00.765Z,19.35
2023-07-21T19:02:27.422Z,19.31
2023-07-21T19:04:54.285Z,19.27
2023-07-21T19:07:20.918Z,19.24
2023-07-21T19:09:48.244Z,19.22
2023-07-21T19:12:14.830Z,19.18
2023-07-21T19:14:43.757Z,19.17
2023-07-21T19:17:10.360Z,19.10
2023-07-21T19:19:37.058Z,19.06
2023-07-21T19:22:04.146Z,19.01
2023-07-21T19:24:31.388Z,18.97
2023-07-21T19:26:58.374Z,18.92
2023-07-21T19:29:25.470Z,18.86
2023-07-21T19:31:53.442Z,18.79
2023-07-21T19:34:20.122Z,18.71
2023-07-21T19:36:46.932Z,18.67
2023-07-21T19:39:13.961Z,18.61
2023-07-21T19:41:40.762Z,18.56
2023-07-21T19:44:07.413Z,18.52
2023-07-21T19:46:36.436Z,18.45
2023-07-21T19:49:05.507Z,18.40
2023-07-21T19:51:32.425Z,18.35
2023-07-21T19:53:59.323Z,18.31
2023-07-21T19:56:26.448Z,18.27
2023-07-21T19:58:53.107Z,18.22
2023-07-21T20:01:19.671Z,18.19
2023-07-21T20:03:46.540Z,18.17
2023-07-21T20:06:13.245Z,18.12
2023-07-21T20:08:40.435Z,18.09
2023-07-21T20:11:07.198Z,18.08
2023-07-21T20:13:34.246Z,18.04
2023-07-21T20:16:01.119Z,18.02
2023-07-21T20:18:28.073Z,17.98
2023-07-21T20:20:54.779Z,17.96
2023-07-21T20:23:21.586Z,17.94
2023-07-21T20:25:48.187Z,17.92
2023-07-21T20:28:17.777Z,17.89
2023-07-21T20:30:45.287Z,17.86
2023-07-21T20:33:13.697Z,17.83
2023-07-21T20:35:42.736Z,17.83
2023-07-21T20:38:09.980Z,17.79
2023-07-21T20:40:36.941Z,17.78
2023-07-21T20:43:04.485Z,17.75
2023-07-21T20:45:32.248Z,17.72
2023-07-21T20:47:59.261Z,17.69
2023-07-21T20:50:25.904Z,17.68
2023-07-21T20:52:52.528Z,17.67
2023-07-21T20:55:19.417Z,17.66
2023-07-21T20:57:46.212Z,17.65
2023-07-21T21:00:14.371Z,17.64
2023-07-21T21:02:43.896Z,17.61
2023-07-21T21:05:12.823Z,17.60
2023-07-21T21:07:40.757Z,17.59
2023-07-21T21:10:08.120Z,17.58
2023-07-21T21:12:35.501Z,17.57
2023-07-21T21:15:03.448Z,17.56
2023-07-21T21:17:31.916Z,17.53
2023-07-21T21:19:58.790Z,17.53
2023-07-21T21:22:25.656Z,17.51
2023-07-21T21:24:53.440Z,17.51
2023-07-21T21:27:20.228Z,17.47
2023-07-21T21:29:46.905Z,17.46
2023-07-21T21:32:13.592Z,17.45
2023-07-21T21:34:40.270Z,17.44
2023-07-21T21:37:07.645Z,17.42
2023-07-21T21:39:34.705Z,17.39
2023-07-21T21:42:01.268Z,17.37
2023-07-21T21:44:28.270Z,17.34
2023-07-21T21:46:54.972Z,17.30
2023-07-21T21:49:21.585Z,17.28
2023-07-21T21:51:48.284Z,17.26
2023-07-21T21:54:14.863Z,17.21
2023-07-21T21:56:41.491Z,17.19
2023-07-21T21:59:08.451Z,17.18
2023-07-21T22:01:35.215Z,17.13
2023-07-21T22:04:02.062Z,17.10
2023-07-21T22:06:29.134Z,17.07
2023-07-21T22:08:56.321Z,17.02
2023-07-21T22:11:23.170Z,17.01
2023-07-21T22:13:49.751Z,16.98
2023-07-21T22:16:16.566Z,16.94
2023-07-21T22:18:43.189Z,16.94
2023-07-21T22:21:10.007Z,16.91
2023-07-21T22:23:37.300Z,16.88
2023-07-21T22:26:06.606Z,16.86
2023-07-21T22:28:34.231Z,16.84
2023-07-21T22:31:00.865Z,16.82
2023-07-21T22:33:27.585Z,16.80
2023-07-21T22:35:54.903Z,16.78
2023-07-21T22:38:22.149Z,16.76
2023-07-21T22:40:48.878Z,16.74
2023-07-21T22:43:15.498Z,16.73
2023-07-21T22:45:42.195Z,16.70
2023-07-21T22:48:08.859Z,16.67
2023-07-21T22:50:35.462Z,16.67
2023-07-21T22:53:02.512Z,16.66
2023-07-21T22:55:29.174Z,16.66
2023-07-21T22:57:55.782Z,16.65
2023-07-21T23:00:22.441Z,16.64
2023-07-21T23:02:49.125Z,16.62
2023-07-21T23:05:15.935Z,16.60
2023-07-21T23:07:42.634Z,16.59
2023-07-21T23:10:09.457Z,16.58
2023-07-21T23:12:36.210Z,16.56
2023-07-21T23:15:02.871Z,16.54
2023-07-21T23:17:29.729Z,16.51
2023-07-21T23:19:56.400Z,16.49
2023-07-21T23:22:22.956Z,16.48
2023-07-21T23:24:49.676Z,16.45
2023-07-21T23:27:16.310Z,16.43
2023-07-21T23:29:42.921Z,16.42
2023-07-21T23:32:09.812Z,16.40
2023-07-21T23:34:36.489Z,16.36
2023-07-21T23:37:03.405Z,16.35
2023-07-21T23:39:30.020Z,16.33
2023-07-21T23:41:56.596Z,16.31
2023-07-21T23:44:23.155Z,16.30
2023-07-21T23:46:49.903Z,16.29
2023-07-21T23:49:16.864Z,16.27
2023-07-21T23:51:43.477Z,16.26
2023-07-21T23:54:10.109Z,16.25
2023-07-21T23:56:36.728Z,16.24
2023-07-21T23:59:03.340Z,16.22
